Time;durP1;ratioP1;P1;durP2;ratioP2;P2;SDS_P1;SDS_P2;PMS_P1;PMS_P2;Temp;Humidity;BMP_temperature;BMP_pressure;BME280_temperature;BME280_humidity;BME280_pressure;Samples;Min_cycle;Max_cycle;Signal;HPM_P1;HPM_P2
2021/12/27 00:01:42;;;;;;;388.23;120.20;;;;;;;;;;4881434;29;20722;-85
2021/12/27 00:04:09;;;;;;;333.87;108.87;;;;;;;;;;4881743;29;20186;-84
2021/12/27 00:06:35;;;;;;;303.27;95.37;;;;;;;;;;4865062;29;20186;-85
2021/12/27 00:09:01;;;;;;;256.03;88.23;;;;;;;;;;4880634;29;20224;-88
2021/12/27 00:11:27;;;;;;;286.87;94.17;;;;;;;;;;4881234;29;20182;-85
2021/12/27 00:13:53;;;;;;;324.13;105.13;;;;;;;;;;4881142;29;20182;-85
2021/12/27 00:16:19;;;;;;;357.30;112.30;;;;;;;;;;4879991;29;20233;-85
2021/12/27 00:18:45;;;;;;;407.03;122.97;;;;;;;;;;4880581;29;20209;-85
2021/12/27 00:21:11;;;;;;;358.70;116.57;;;;;;;;;;4879973;29;20635;-85
2021/12/27 00:23:39;;;;;;;394.00;126.23;;;-10.20;99.90;;;;;;4879840;29;20197;-85
2021/12/27 00:26:05;;;;;;;327.60;113.97;;;;;;;;;;4880612;29;20189;-86
2021/12/27 00:28:32;;;;;;;335.93;110.37;;;;;;;;;;4880589;29;20301;-86
2021/12/27 00:30:58;;;;;;;330.73;110.47;;;;;;;;;;4880282;29;20182;-85
2021/12/27 00:33:25;;;;;;;381.17;124.17;;;;;;;;;;4880642;29;20242;-84
2021/12/27 00:35:51;;;;;;;406.27;128.33;;;;;;;;;;4879756;29;20186;-84
2021/12/27 00:38:17;;;;;;;366.00;118.63;;;;;;;;;;4879461;29;20281;-84
2021/12/27 00:40:43;;;;;;;374.03;125.67;;;;;;;;;;4880768;29;20268;-83
2021/12/27 00:43:09;;;;;;;303.73;105.10;;;;;;;;;;4880370;29;20276;-85
2021/12/27 00:45:35;;;;;;;285.33;95.70;;;;;;;;;;4879577;29;20186;-85
2021/12/27 00:48:01;;;;;;;377.37;118.27;;;;;;;;;;4880722;29;20213;-85
2021/12/27 00:50:28;;;;;;;398.97;122.57;;;-10.10;99.90;;;;;;4880138;29;20193;-85
2021/12/27 00:52:54;;;;;;;364.77;118.43;;;;;;;;;;4879606;29;20205;-85
2021/12/27 00:55:20;;;;;;;399.83;130.27;;;-10.10;99.90;;;;;;4879001;29;20194;-85
2021/12/27 00:57:46;;;;;;;377.60;128.17;;;;;;;;;;4864099;29;20218;-85
2021/12/27 01:00:16;;;;;;;364.27;120.67;;;-10.20;99.90;;;;;;4879370;29;20714;-84
2021/12/27 01:02:42;;;;;;;357.63;121.80;;;;;;;;;;4880638;29;20318;-83
2021/12/27 01:05:09;;;;;;;361.30;130.03;;;-10.30;99.90;;;;;;4878836;29;20185;-85
2021/12/27 01:07:36;;;;;;;460.10;145.20;;;;;;;;;;4879480;29;20291;-86
2021/12/27 01:13:02;;;;;;;395.33;125.87;;;;;;;;;;4880749;29;20200;-86
2021/12/27 01:18:06;;;;;;;330.27;112.27;;;;;;;;;;4879231;29;20217;-86
2021/12/27 01:20:32;;;;;;;317.00;107.90;;;;;;;;;;4884183;29;20178;-86
2021/12/27 01:22:58;;;;;;;306.43;110.60;;;;;;;;;;4897834;29;20692;-86
2021/12/27 01:25:25;;;;;;;330.47;106.20;;;-10.40;99.90;;;;;;4880859;29;20271;-86
2021/12/27 01:27:52;;;;;;;325.23;112.17;;;;;;;;;;4880528;29;20182;-86
2021/12/27 01:30:21;;;;;;;340.87;111.17;;;;;;;;;;4881441;29;20199;-86
2021/12/27 01:32:52;;;;;;;390.27;121.47;;;-10.40;99.90;;;;;;4878734;29;20277;-86
2021/12/27 01:35:19;;;;;;;347.07;117.57;;;;;;;;;;4880417;29;20249;-86
2021/12/27 01:37:45;;;;;;;357.60;125.87;;;;;;;;;;4878938;29;20190;-86
2021/12/27 01:40:13;;;;;;;393.30;127.47;;;-10.30;99.90;;;;;;4878810;29;20186;-86
2021/12/27 01:43:10;;;;;;;415.17;124.20;;;-10.30;99.90;;;;;;4879196;29;20185;-85
2021/12/27 01:45:44;;;;;;;329.37;114.43;;;-10.30;99.90;;;;;;4878840;29;20189;-85
2021/12/27 01:48:12;;;;;;;353.97;123.83;;;-10.30;99.90;;;;;;4879422;29;20272;-85
2021/12/27 01:50:40;;;;;;;372.00;117.20;;;-10.40;99.90;;;;;;4879825;29;20270;-84
2021/12/27 01:53:08;;;;;;;353.90;118.03;;;-10.40;99.90;;;;;;4879054;29;20190;-85
2021/12/27 01:55:34;;;;;;;367.47;125.20;;;;;;;;;;4863480;29;20190;-85
2021/12/27 01:58:00;;;;;;;318.47;105.50;;;;;;;;;;4878853;29;20237;-86
2021/12/27 02:00:26;;;;;;;308.50;110.40;;;;;;;;;;4879353;29;20197;-85
2021/12/27 02:02:53;;;;;;;344.03;113.73;;;;;;;;;;4880168;29;20182;-85
2021/12/27 02:05:19;;;;;;;318.37;109.13;;;-10.40;99.90;;;;;;4885943;29;20180;-85
2021/12/27 02:07:46;;;;;;;356.67;114.83;;;;;;;;;;4881520;29;20531;-85
2021/12/27 02:10:13;;;;;;;326.90;107.10;;;-10.40;99.90;;;;;;4878356;29;20193;-85
2021/12/27 02:12:39;;;;;;;312.17;106.23;;;;;;;;;;4879097;29;20200;-84
2021/12/27 02:15:09;;;;;;;291.17;99.60;;;-10.40;99.90;;;;;;4880726;29;20213;-86
2021/12/27 02:17:35;;;;;;;287.30;97.80;;;;;;;;;;4879839;29;20265;-86
2021/12/27 02:20:02;;;;;;;313.57;106.60;;;;;;;;;;4878690;29;20189;-85
2021/12/27 02:22:33;;;;;;;335.13;112.93;;;;;;;;;;4878359;29;20223;-84
2021/12/27 02:24:59;;;;;;;300.60;107.07;;;;;;;;;;4878665;29;20177;-84
2021/12/27 02:27:25;;;;;;;298.00;106.07;;;;;;;;;;4879747;29;20186;-86
2021/12/27 02:29:51;;;;;;;304.30;103.77;;;;;;;;;;4863014;29;20241;-85
2021/12/27 02:32:17;;;;;;;250.43;94.97;;;;;;;;;;4878201;29;20196;-86
2021/12/27 02:34:43;;;;;;;282.43;92.63;;;;;;;;;;4863350;29;20292;-85
2021/12/27 02:37:09;;;;;;;221.77;82.33;;;;;;;;;;4880963;29;20318;-84
2021/12/27 02:39:35;;;;;;;250.37;89.60;;;;;;;;;;4881606;29;20190;-84
2021/12/27 02:42:01;;;;;;;271.00;94.37;;;;;;;;;;4882161;29;20538;-83
2021/12/27 02:44:27;;;;;;;270.53;94.90;;;;;;;;;;4882009;29;20250;-84
2021/12/27 02:46:53;;;;;;;258.83;93.63;;;;;;;;;;4889262;29;20182;-84
2021/12/27 02:49:19;;;;;;;284.80;96.63;;;;;;;;;;4893534;29;20213;-85
2021/12/27 02:51:45;;;;;;;304.10;104.83;;;;;;;;;;4889260;29;20189;-85
2021/12/27 02:54:11;;;;;;;321.77;103.83;;;;;;;;;;4885884;29;20182;-85
2021/12/27 02:56:37;;;;;;;275.60;90.23;;;;;;;;;;4881255;29;20194;-84
2021/12/27 02:59:03;;;;;;;237.80;88.93;;;;;;;;;;4881905;29;20325;-85
2021/12/27 03:01:30;;;;;;;259.43;91.70;;;;;;;;;;4882755;29;20208;-84
2021/12/27 03:03:56;;;;;;;264.07;93.50;;;;;;;;;;4866735;29;20190;-84
2021/12/27 03:06:22;;;;;;;247.73;86.03;;;;;;;;;;4882114;29;20256;-85
2021/12/27 03:08:49;;;;;;;263.17;88.60;;;-10.50;99.90;;;;;;4881738;29;20218;-85
2021/12/27 03:11:15;;;;;;;270.97;93.23;;;;;;;;;;4868150;29;20634;-85
2021/12/27 03:13:47;;;;;;;223.43;82.33;;;-10.50;99.90;;;;;;4883935;29;20190;-85
2021/12/27 03:16:16;;;;;;;232.47;77.53;;;-10.50;99.90;;;;;;4882472;29;20193;-86
2021/12/27 03:18:44;;;;;;;236.13;76.87;;;-10.50;99.90;;;;;;4881859;29;20185;-86
2021/12/27 03:21:10;;;;;;;197.37;72.67;;;;;;;;;;4880639;29;20280;-85
2021/12/27 03:23:37;;;;;;;196.23;67.83;;;-10.60;99.90;;;;;;4880485;29;20223;-86
2021/12/27 03:26:04;;;;;;;156.80;60.57;;;;;;;;;;4865239;29;20217;-85
2021/12/27 03:28:30;;;;;;;153.97;57.60;;;;;;;;;;4880625;29;20613;-85
2021/12/27 03:30:57;;;;;;;161.03;61.03;;;-10.60;99.90;;;;;;4880642;29;20193;-85
2021/12/27 03:33:23;;;;;;;176.80;61.30;;;-10.60;99.90;;;;;;4865159;29;20190;-85
2021/12/27 03:35:59;;;;;;;154.53;59.10;;;-10.60;99.90;;;;;;4880968;29;20241;-85
2021/12/27 03:38:25;;;;;;;167.90;58.17;;;;;;;;;;4880314;29;20306;-85
2021/12/27 03:40:51;;;;;;;155.10;56.60;;;-10.60;99.90;;;;;;4865145;29;20190;-85
2021/12/27 03:43:17;;;;;;;147.90;55.67;;;;;;;;;;4864694;29;20190;-85
2021/12/27 03:45:43;;;;;;;134.20;56.03;;;;;;;;;;4879991;29;20190;-84
2021/12/27 03:48:10;;;;;;;148.00;57.87;;;-10.50;99.90;;;;;;4873879;29;20281;-84
2021/12/27 03:50:38;;;;;;;145.73;52.50;;;-10.50;99.90;;;;;;4893437;29;20189;-85
2021/12/27 03:53:06;;;;;;;124.47;48.83;;;-10.60;99.90;;;;;;4880260;29;20625;-85
2021/12/27 03:55:32;;;;;;;126.60;48.10;;;;;;;;;;4879770;29;20192;-85
2021/12/27 03:58:08;;;;;;;140.03;51.80;;;;;;;;;;4879750;29;20237;-85
2021/12/27 04:00:48;;;;;;;155.97;55.80;;;-10.70;99.90;;;;;;4880520;29;20244;-86
2021/12/27 04:03:16;;;;;;;143.20;54.03;;;-10.60;99.90;;;;;;4865710;29;20237;-85
2021/12/27 04:05:42;;;;;;;142.97;54.73;;;-10.50;99.90;;;;;;4879672;29;20210;-85
2021/12/27 04:08:11;;;;;;;144.33;53.33;;;;;;;;;;4879609;29;20758;-86
2021/12/27 04:10:39;;;;;;;141.40;54.60;;;-10.50;99.90;;;;;;4879896;29;20190;-85
2021/12/27 04:13:05;;;;;;;129.97;49.07;;;;;;;;;;4880664;29;20264;-86
2021/12/27 04:15:31;;;;;;;120.87;47.77;;;;;;;;;;4880719;29;20185;-86
2021/12/27 04:17:57;;;;;;;130.23;47.83;;;;;;;;;;4880446;29;20205;-86
2021/12/27 04:20:23;;;;;;;126.90;49.67;;;-10.50;99.90;;;;;;4879963;29;20311;-86
2021/12/27 04:22:50;;;;;;;122.93;45.50;;;-10.70;99.90;;;;;;4879153;29;20704;-86
2021/12/27 04:25:17;;;;;;;110.30;44.20;;;-10.60;99.90;;;;;;4863967;29;20279;-86
2021/12/27 04:27:43;;;;;;;119.30;45.80;;;;;;;;;;4881027;29;20189;-85
2021/12/27 04:30:10;;;;;;;120.43;44.07;;;-9.40;99.90;;;;;;4880792;29;20702;-85
2021/12/27 04:32:36;;;;;;;118.73;40.33;;;;;;;;;;4879136;29;20190;-86
2021/12/27 04:35:02;;;;;;;112.33;42.60;;;;;;;;;;4863774;29;20194;-86
2021/12/27 04:37:29;;;;;;;114.03;43.83;;;;;;;;;;4863678;29;20187;-84
2021/12/27 04:39:56;;;;;;;111.33;42.23;;;-10.60;99.90;;;;;;4879302;29;20185;-86
2021/12/27 04:42:22;;;;;;;119.60;42.47;;;;;;;;;;4879089;29;20212;-84
2021/12/27 04:44:48;;;;;;;103.67;39.93;;;;;;;;;;4879176;29;20197;-85
2021/12/27 04:47:16;;;;;;;103.20;39.27;;;;;;;;;;4863983;29;20189;-85
2021/12/27 04:49:42;;;;;;;95.17;37.63;;;;;;;;;;4880233;29;20212;-85
2021/12/27 04:52:10;;;;;;;97.20;38.47;;;;;;;;;;4879263;29;20188;-84
2021/12/27 04:54:36;;;;;;;111.13;35.97;;;;;;;;;;4880249;29;20197;-87
2021/12/27 04:57:02;;;;;;;107.47;37.83;;;;;;;;;;4864609;29;20644;-86
2021/12/27 04:59:28;;;;;;;81.97;32.90;;;;;;;;;;4879965;29;20320;-85
2021/12/27 05:01:54;;;;;;;85.57;34.53;;;;;;;;;;4880010;29;20185;-85
2021/12/27 05:04:20;;;;;;;92.80;30.93;;;;;;;;;;4863863;29;20254;-85
2021/12/27 05:06:46;;;;;;;88.83;32.17;;;;;;;;;;4879081;29;20182;-85
2021/12/27 05:09:12;;;;;;;85.93;31.30;;;;;;;;;;4878846;29;20640;-85
2021/12/27 05:11:39;;;;;;;97.70;35.63;;;;;;;;;;4863554;29;20615;-85
2021/12/27 05:14:05;;;;;;;92.40;34.73;;;;;;;;;;4878931;29;20182;-86
2021/12/27 05:16:31;;;;;;;93.37;31.67;;;;;;;;;;4878829;29;20190;-86
2021/12/27 05:18:58;;;;;;;98.70;35.83;;;;;;;;;;4880420;29;20181;-85
2021/12/27 05:21:24;;;;;;;100.67;37.97;;;;;;;;;;4879150;29;20190;-86
2021/12/27 05:23:50;;;;;;;121.90;40.87;;;;;;;;;;4878695;29;20196;-86
2021/12/27 05:26:16;;;;;;;119.10;45.83;;;;;;;;;;4879165;29;20229;-87
2021/12/27 05:28:43;;;;;;;106.80;44.40;;;;;;;;;;4878556;29;20221;-86
2021/12/27 05:31:09;;;;;;;100.37;41.90;;;;;;;;;;4878798;29;20206;-86
2021/12/27 05:33:35;;;;;;;110.40;38.87;;;;;;;;;;4879057;29;20186;-86
2021/12/27 05:36:02;;;;;;;115.90;39.20;;;-10.50;99.90;;;;;;4863638;29;20281;-86
2021/12/27 05:38:28;;;;;;;129.23;43.03;;;;;;;;;;4863323;29;20211;-86
2021/12/27 05:40:55;;;;;;;87.63;35.43;;;;;;;;;;4879195;29;20182;-86
2021/12/27 05:43:21;;;;;;;95.73;36.57;;;-10.40;99.90;;;;;;4879181;29;20636;-85
2021/12/27 05:45:47;;;;;;;138.33;39.97;;;;;;;;;;4878607;29;20194;-86
2021/12/27 05:48:15;;;;;;;117.63;39.43;;;;;;;;;;4879386;29;20231;-85
2021/12/27 05:50:41;;;;;;;108.87;38.17;;;;;;;;;;4878994;29;20615;-86
2021/12/27 05:53:07;;;;;;;109.23;45.10;;;;;;;;;;4878693;29;20287;-86
2021/12/27 05:55:33;;;;;;;124.20;42.20;;;-10.20;99.90;;;;;;4878950;29;20190;-86
2021/12/27 05:57:59;;;;;;;123.27;41.23;;;;;;;;;;4881406;29;20253;-86
2021/12/27 06:00:25;;;;;;;117.07;40.30;;;;;;;;;;4880330;29;20243;-87
2021/12/27 06:02:53;;;;;;;108.23;38.67;;;;;;;;;;4880840;29;20197;-87
2021/12/27 06:05:20;;;;;;;102.47;37.13;;;;;;;;;;4867233;29;20202;-86
2021/12/27 06:07:46;;;;;;;96.97;37.97;;;;;;;;;;4882506;29;20189;-89
2021/12/27 06:10:12;;;;;;;113.43;39.20;;;;;;;;;;4884207;29;20190;-85
2021/12/27 06:12:38;;;;;;;108.13;39.37;;;;;;;;;;4884691;29;20189;-84
2021/12/27 06:15:05;;;;;;;112.37;40.03;;;-10.10;99.90;;;;;;4889111;29;20206;-84
2021/12/27 06:17:32;;;;;;;98.33;36.63;;;;;;;;;;4888695;29;20186;-85
2021/12/27 06:19:59;;;;;;;106.83;40.20;;;-10.20;99.90;;;;;;4882823;29;20190;-82
2021/12/27 06:22:25;;;;;;;117.83;40.57;;;;;;;;;;4873963;29;20187;-81
2021/12/27 06:24:51;;;;;;;102.47;39.83;;;;;;;;;;4871086;29;20219;-83
2021/12/27 06:27:17;;;;;;;113.40;39.87;;;;;;;;;;4871607;29;20183;-83
2021/12/27 06:29:43;;;;;;;110.20;40.43;;;;;;;;;;4862632;29;20210;-84
2021/12/27 06:32:13;;;;;;;123.53;43.47;;;;;;;;;;4862863;29;20190;-84
2021/12/27 06:34:40;;;;;;;98.93;36.60;;;-10.20;99.90;;;;;;4863104;29;20186;-82
2021/12/27 06:37:06;;;;;;;78.80;30.93;;;;;;;;;;4864895;29;20190;-82
2021/12/27 06:39:32;;;;;;;85.17;30.03;;;;;;;;;;4865442;29;20186;-82
2021/12/27 06:41:58;;;;;;;106.53;32.60;;;;;;;;;;4877889;29;20200;-82
2021/12/27 06:44:24;;;;;;;125.07;44.43;;;;;;;;;;4889845;29;20193;-80
2021/12/27 06:46:52;;;;;;;68.60;28.40;;;;;;;;;;4886757;29;20269;-81
2021/12/27 06:49:18;;;;;;;154.37;42.07;;;;;;;;;;4878145;29;20683;-80
2021/12/27 06:51:44;;;;;;;66.77;26.03;;;;;;;;;;4880690;29;20198;-84
2021/12/27 06:54:10;;;;;;;104.17;39.27;;;;;;;;;;4885951;29;20201;-84
2021/12/27 06:56:36;;;;;;;139.20;46.73;;;;;;;;;;4898246;29;20198;-82
2021/12/27 06:59:03;;;;;;;122.60;44.80;;;;;;;;;;4899280;29;20230;-82
2021/12/27 07:01:29;;;;;;;110.07;44.07;;;;;;;;;;4904685;29;20183;-83
2021/12/27 07:03:55;;;;;;;173.83;49.33;;;;;;;;;;4896124;29;20229;-82
2021/12/27 07:06:22;;;;;;;103.50;34.73;;;;;;;;;;4899337;29;20222;-82
2021/12/27 07:08:48;;;;;;;85.33;33.07;;;;;;;;;;4884808;29;20225;-80
2021/12/27 07:11:14;;;;;;;77.10;28.43;;;;;;;;;;4882563;29;20197;-81
2021/12/27 07:13:41;;;;;;;90.57;33.20;;;;;;;;;;4883642;29;20190;-82
2021/12/27 07:16:07;;;;;;;97.97;36.80;;;;;;;;;;4874204;29;20279;-84
2021/12/27 07:18:33;;;;;;;98.57;31.67;;;;;;;;;;4894887;29;20186;-87
2021/12/27 07:20:59;;;;;;;92.47;33.80;;;;;;;;;;4878809;29;20198;-87
2021/12/27 07:23:24;;;;;;;170.63;54.07;;;;;;;;;;4899352;29;20186;-85
2021/12/27 07:25:51;;;;;;;95.40;38.47;;;;;;;;;;4897822;29;20225;-83
2021/12/27 07:28:17;;;;;;;82.13;32.83;;;;;;;;;;4857925;29;20233;-82
2021/12/27 07:30:43;;;;;;;89.70;33.63;;;;;;;;;;4881239;29;20463;-85
2021/12/27 07:33:09;;;;;;;79.07;29.43;;;;;;;;;;4866883;29;20198;-82
2021/12/27 07:35:36;;;;;;;115.57;40.63;;;;;;;;;;4872762;29;20187;-82
2021/12/27 07:38:02;;;;;;;96.70;34.80;;;;;;;;;;4871780;29;20326;-82
2021/12/27 07:40:28;;;;;;;128.97;49.07;;;-9.20;99.90;;;;;;4863538;29;20190;-81
2021/12/27 07:42:54;;;;;;;188.30;75.77;;;;;;;;;;4881583;29;20201;-81
2021/12/27 07:45:20;;;;;;;163.33;64.83;;;;;;;;;;4881380;29;20233;-84
2021/12/27 07:47:47;;;;;;;110.33;45.17;;;;;;;;;;4866279;29;20198;-81
2021/12/27 07:50:12;;;;;;;114.93;40.30;;;-8.90;99.90;;;;;;4862571;29;20190;-82
2021/12/27 07:52:38;;;;;;;103.03;37.73;;;;;;;;;;4876184;29;20194;-84
2021/12/27 07:55:05;;;;;;;106.93;36.77;;;-8.90;99.90;;;;;;4870190;29;20278;-83
2021/12/27 07:57:31;;;;;;;98.50;33.10;;;;;;;;;;4870544;29;20186;-82
2021/12/27 07:59:57;;;;;;;89.37;33.27;;;;;;;;;;4880453;29;20241;-83
2021/12/27 08:02:23;;;;;;;95.10;34.43;;;;;;;;;;4879001;29;20274;-84
2021/12/27 08:04:49;;;;;;;106.37;36.93;;;;;;;;;;4883669;29;20615;-83
2021/12/27 08:07:16;;;;;;;91.13;31.87;;;-8.50;99.90;;;;;;4873360;29;20572;-82
2021/12/27 08:09:43;;;;;;;97.87;34.03;;;;;;;;;;4882489;29;20222;-81
2021/12/27 08:12:12;;;;;;;74.17;29.13;;;-8.40;99.90;;;;;;4881265;29;20306;-82
2021/12/27 08:14:38;;;;;;;75.27;27.80;;;;;;;;;;4871921;29;20202;-82
2021/12/27 08:17:04;;;;;;;82.13;30.13;;;-8.60;99.90;;;;;;4880132;29;20190;-82
2021/12/27 08:19:30;;;;;;;82.23;31.07;;;;;;;;;;4853592;29;20303;-82
2021/12/27 08:21:56;;;;;;;84.93;29.80;;;;;;;;;;4862860;29;20198;-82
2021/12/27 08:24:22;;;;;;;71.07;26.33;;;;;;;;;;4866712;29;20634;-84
2021/12/27 08:26:48;;;;;;;88.17;32.73;;;;;;;;;;4871390;29;20187;-83
2021/12/27 08:29:14;;;;;;;79.33;28.17;;;;;;;;;;4874307;29;20249;-83
2021/12/27 08:31:40;;;;;;;87.07;30.70;;;;;;;;;;4874673;29;20503;-84
2021/12/27 08:34:06;;;;;;;89.97;28.33;;;;;;;;;;4874955;29;20289;-84
2021/12/27 08:36:32;;;;;;;79.40;28.70;;;;;;;;;;4853420;29;20194;-83
2021/12/27 08:38:58;;;;;;;78.40;28.63;;;;;;;;;;4878671;29;20206;-84
2021/12/27 08:41:27;;;;;;;74.80;28.50;;;;;;;;;;4878329;29;20205;-81
2021/12/27 08:44:00;;;;;;;82.63;31.07;;;-7.50;99.90;;;;;;4880454;29;20247;-84
2021/12/27 08:46:26;;;;;;;78.10;32.90;;;;;;;;;;4879056;29;20192;-83
2021/12/27 08:48:52;;;;;;;85.93;34.47;;;;;;;;;;4875132;29;20222;-83
2021/12/27 08:51:18;;;;;;;101.07;37.07;;;;;;;;;;4860206;29;20195;-83
2021/12/27 08:53:44;;;;;;;83.13;33.20;;;;;;;;;;4880446;29;20194;-83
2021/12/27 08:56:11;;;;;;;117.93;40.43;;;;;;;;;;4875711;29;20198;-80
2021/12/27 08:58:37;;;;;;;102.53;32.47;;;;;;;;;;4888854;29;20316;-84
2021/12/27 09:01:03;;;;;;;91.37;32.33;;;;;;;;;;4882669;29;20203;-82
2021/12/27 09:03:29;;;;;;;78.87;25.20;;;;;;;;;;4879886;29;20260;-84
2021/12/27 09:05:55;;;;;;;137.83;41.83;;;;;;;;;;4872117;29;20194;-83
2021/12/27 09:08:22;;;;;;;76.50;22.70;;;-6.80;99.90;;;;;;4888253;29;20213;-82
2021/12/27 09:10:48;;;;;;;73.40;27.40;;;;;;;;;;4888341;29;20193;-83
2021/12/27 09:13:14;;;;;;;80.80;27.60;;;;;;;;;;4876912;29;20689;-82
2021/12/27 09:15:40;;;;;;;285.60;80.20;;;;;;;;;;4863490;29;20375;-83
2021/12/27 09:18:06;;;;;;;117.30;41.33;;;;;;;;;;4861421;29;20670;-84
2021/12/27 09:20:32;;;;;;;63.77;23.93;;;;;;;;;;4871464;29;20202;-83
2021/12/27 09:22:58;;;;;;;102.53;35.30;;;;;;;;;;4865185;29;20195;-82
2021/12/27 09:25:25;;;;;;;48.90;21.60;;;;;;;;;;4870899;29;20194;-83
2021/12/27 09:27:51;;;;;;;54.30;22.50;;;;;;;;;;4873783;29;20273;-84
2021/12/27 09:30:17;;;;;;;50.20;22.40;;;-6.50;99.90;;;;;;4874145;29;20240;-84
2021/12/27 09:32:44;;;;;;;83.13;28.93;;;;;;;;;;4871087;29;20275;-84
2021/12/27 09:35:10;;;;;;;65.80;23.80;;;;;;;;;;4877266;29;20192;-83
2021/12/27 09:37:36;;;;;;;72.40;26.67;;;;;;;;;;4879958;29;20204;-83
2021/12/27 09:40:02;;;;;;;56.97;23.63;;;;;;;;;;4876736;29;20204;-86
2021/12/27 09:42:28;;;;;;;64.77;23.77;;;;;;;;;;4876902;29;20197;-84
2021/12/27 09:44:56;;;;;;;43.93;18.40;;;-6.10;99.90;;;;;;4877825;29;20269;-84
2021/12/27 09:47:23;;;;;;;48.67;20.97;;;;;;;;;;4882559;29;20207;-85
2021/12/27 09:49:49;;;;;;;55.80;22.50;;;;;;;;;;4865858;29;20230;-86
2021/12/27 09:52:15;;;;;;;93.77;36.30;;;;;;;;;;4881243;29;20282;-86
2021/12/27 09:54:46;;;;;;;121.70;44.13;;;-5.80;99.90;;;;;;4882281;29;20531;-87
2021/12/27 09:57:13;;;;;;;209.17;66.87;;;;;;;;;;4879344;29;20178;-87
2021/12/27 09:59:39;;;;;;;221.67;66.63;;;;;;;;;;4875029;29;20232;-86
2021/12/27 10:02:05;;;;;;;64.87;25.07;;;-4.10;99.90;;;;;;4874311;29;20685;-86
2021/12/27 10:04:32;;;;;;;113.27;42.83;;;-4.10;99.90;;;;;;4876014;29;20240;-86
2021/12/27 10:06:58;;;;;;;69.67;29.77;;;;;;;;;;4850941;29;20202;-87
2021/12/27 10:09:24;;;;;;;86.63;33.23;;;;;;;;;;4876276;29;20235;-87
2021/12/27 10:11:50;;;;;;;96.10;38.10;;;;;;;;;;4880088;29;20204;-87
2021/12/27 10:14:19;;;;;;;83.13;34.80;;;;;;;;;;4870258;29;20615;-88
2021/12/27 10:17:10;;;;;;;57.23;23.43;;;-4.80;99.90;;;;;;4887961;29;20192;-94
2021/12/27 10:19:36;;;;;;;73.70;31.73;;;;;;;;;;4882432;29;20280;-88
2021/12/27 10:22:06;;;;;;;55.53;22.17;;;-4.70;99.90;;;;;;4881729;29;20659;-88
2021/12/27 10:24:32;;;;;;;52.43;19.77;;;;;;;;;;4881794;29;20205;-89
2021/12/27 10:27:00;;;;;;;70.73;28.13;;;;;;;;;;4863438;29;20189;-91
2021/12/27 10:29:41;;;;;;;;;;;;;;;;;;;;;
2021/12/27 10:32:09;;;;;;;60.57;24.50;;;-4.50;99.90;;;;;;4894491;29;20220;-93
2021/12/27 10:34:35;;;;;;;69.87;25.93;;;;;;;;;;4903417;29;20281;-87
2021/12/27 10:37:08;;;;;;;76.27;30.90;;;;;;;;;;4901076;29;20197;-87
2021/12/27 10:39:54;;;;;;;71.07;23.53;;;;;;;;;;4889237;29;20206;-88
2021/12/27 10:42:27;;;;;;;77.73;30.03;;;;;;;;;;4868549;29;20197;-87
2021/12/27 10:44:57;;;;;;;52.00;20.60;;;;;;;;;;4891090;29;20191;-89
2021/12/27 10:47:43;;;;;;;88.07;33.50;;;-4.60;99.90;;;;;;4877880;29;20191;-86
2021/12/27 10:50:39;;;;;;;43.90;18.23;;;-4.70;99.90;;;;;;4886470;29;20232;-92
2021/12/27 10:53:07;;;;;;;143.00;50.90;;;-4.70;99.90;;;;;;4868441;29;20316;-84
2021/12/27 10:55:43;;;;;;;87.63;32.90;;;-4.60;99.90;;;;;;4883284;29;20193;-85
2021/12/27 10:58:18;;;;;;;108.63;41.40;;;-4.60;99.90;;;;;;4862698;29;20193;-93
2021/12/27 11:00:47;;;;;;;62.70;24.17;;;-4.50;99.90;;;;;;4873095;29;20193;-86
2021/12/27 11:03:25;;;;;;;45.83;16.77;;;;;;;;;;4869867;29;20205;-87
2021/12/27 11:05:51;;;;;;;61.40;23.10;;;;;;;;;;4877042;29;20194;-86
2021/12/27 11:08:20;;;;;;;145.33;49.37;;;;;;;;;;4871245;29;20225;-87
2021/12/27 11:10:47;;;;;;;112.27;34.90;;;;;;;;;;4875918;29;20200;-86
2021/12/27 11:13:13;;;;;;;127.00;40.57;;;;;;;;;;4871526;29;20194;-87
2021/12/27 11:15:40;;;;;;;44.90;17.73;;;;;;;;;;4879214;29;20674;-87
2021/12/27 11:18:06;;;;;;;58.83;22.47;;;-4.10;99.90;;;;;;4882564;29;20209;-87
2021/12/27 11:20:34;;;;;;;79.53;32.57;;;-4.10;99.90;;;;;;4871086;29;20196;-87
2021/12/27 11:23:01;;;;;;;43.27;15.47;;;-3.90;99.90;;;;;;4880063;29;20246;-86
2021/12/27 11:25:37;;;;;;;113.27;39.70;;;-3.80;99.90;;;;;;4846375;29;20248;-87
2021/12/27 11:28:06;;;;;;;66.63;26.07;;;-3.70;99.90;;;;;;4866648;29;20186;-87
2021/12/27 11:30:33;;;;;;;43.07;19.93;;;-3.50;99.90;;;;;;4880569;29;20277;-85
2021/12/27 11:33:15;;;;;;;45.37;19.90;;;-3.30;99.90;;;;;;4885965;29;20199;-85
2021/12/27 11:36:04;;;;;;;41.10;15.23;;;;;;;;;;4884915;29;20196;-87
2021/12/27 11:38:33;;;;;;;53.67;21.07;;;;;;;;;;4880521;29;20236;-87
2021/12/27 11:41:26;;;;;;;73.23;25.67;;;-3.30;99.90;;;;;;4881312;29;20190;-87
2021/12/27 11:44:01;;;;;;;54.73;22.80;;;-3.20;99.90;;;;;;4874763;29;20183;-86
2021/12/27 11:46:32;;;;;;;68.30;26.20;;;-3.00;99.90;;;;;;4873604;29;20198;-86
2021/12/27 11:49:00;;;;;;;138.80;50.27;;;-2.60;99.90;;;;;;4880447;29;20260;-87
2021/12/27 11:51:36;;;;;;;196.87;63.93;;;;;;;;;;4879239;29;20209;-87
2021/12/27 11:54:04;;;;;;;222.17;70.10;;;;;;;;;;4875575;29;20272;-87
2021/12/27 11:56:39;;;;;;;77.60;28.20;;;;;;;;;;4865703;29;20288;-88
2021/12/27 11:59:35;;;;;;;121.63;37.50;;;0.20;99.90;;;;;;4875612;29;20363;-87
2021/12/27 12:02:13;;;;;;;199.80;61.10;;;0.20;99.90;;;;;;4878993;29;20212;-85
2021/12/27 12:04:39;;;;;;;386.50;121.07;;;;;;;;;;4874853;29;20190;-87
2021/12/27 12:07:07;;;;;;;309.43;99.67;;;;;;;;;;4874088;29;20186;-86
2021/12/27 12:09:45;;;;;;;256.93;79.23;;;-0.30;97.90;;;;;;4872668;29;20210;-84
2021/12/27 12:12:13;;;;;;;297.10;90.53;;;;;;;;;;4869771;29;20229;-85
2021/12/27 12:14:40;;;;;;;269.40;83.70;;;-0.70;99.90;;;;;;4878606;29;20194;-87
2021/12/27 12:17:14;;;;;;;157.13;51.07;;;-0.80;99.90;;;;;;4878659;29;20723;-83
2021/12/27 12:19:40;;;;;;;128.57;38.77;;;;;;;;;;4878267;29;20193;-87
2021/12/27 12:22:07;;;;;;;200.43;57.50;;;-1.50;99.90;;;;;;4878568;29;20296;-86
2021/12/27 12:24:35;;;;;;;150.67;40.97;;;-1.50;99.90;;;;;;4874673;29;20221;-84
2021/12/27 12:27:09;;;;;;;126.73;37.60;;;-1.00;99.90;;;;;;4878943;29;20281;-84
2021/12/27 12:29:40;;;;;;;130.93;39.93;;;-0.10;99.90;;;;;;4876259;29;20228;-85
2021/12/27 12:32:09;;;;;;;149.73;44.13;;;-0.20;99.90;;;;;;4877535;29;20193;-86
2021/12/27 12:34:35;;;;;;;124.07;41.93;;;0.30;97.70;;;;;;4877694;29;20204;-83
2021/12/27 12:37:08;;;;;;;105.50;32.67;;;0.60;94.80;;;;;;4878234;29;20204;-83
2021/12/27 12:39:49;;;;;;;84.20;37.70;;;0.60;94.10;;;;;;4878389;29;20663;-84
2021/12/27 12:42:27;;;;;;;160.50;65.37;;;0.30;94.60;;;;;;4871676;29;20214;-85
2021/12/27 12:45:06;;;;;;;87.50;34.20;;;-0.40;99.90;;;;;;4885801;29;20185;-83
2021/12/27 12:47:40;;;;;;;61.23;27.57;;;0.00;99.90;;;;;;4877794;29;20216;-82
2021/12/27 12:50:20;;;;;;;94.33;43.40;;;-0.20;99.90;;;;;;4877850;29;20238;-83
2021/12/27 12:52:51;;;;;;;89.03;40.27;;;-0.40;99.90;;;;;;4873204;29;20670;-84
2021/12/27 12:55:25;;;;;;;70.97;31.30;;;-0.90;99.90;;;;;;4873060;29;20674;-83
2021/12/27 12:57:51;;;;;;;61.63;24.43;;;;;;;;;;4854516;29;20196;-83
2021/12/27 13:00:22;;;;;;;45.13;21.13;;;-2.10;99.90;;;;;;4868612;29;20713;-85
2021/12/27 13:02:48;;;;;;;92.03;40.93;;;;;;;;;;4872515;29;20185;-84
2021/12/27 13:05:18;;;;;;;154.73;54.20;;;;;;;;;;4866196;29;20195;-83
2021/12/27 13:07:54;;;;;;;203.23;68.40;;;-3.00;99.90;;;;;;4868532;29;20206;-83
2021/12/27 13:10:33;;;;;;;149.73;55.90;;;-2.90;99.90;;;;;;4874597;29;20253;-85
2021/12/27 13:13:02;;;;;;;294.93;109.10;;;-3.40;99.90;;;;;;4867259;29;20208;-85
2021/12/27 13:15:34;;;;;;;168.13;60.03;;;-3.50;99.90;;;;;;4871505;29;20189;-83
2021/12/27 13:18:03;;;;;;;96.83;33.97;;;;;;;;;;4874438;29;20818;-84
2021/12/27 13:20:31;;;;;;;148.13;47.70;;;-3.70;99.90;;;;;;4871389;29;20191;-82
2021/12/27 13:22:58;;;;;;;114.50;41.10;;;-3.80;99.90;;;;;;4868960;29;20195;-81
2021/12/27 13:25:47;;;;;;;71.77;29.97;;;-3.60;99.90;;;;;;4852454;29;20196;-84
2021/12/27 13:28:13;;;;;;;58.57;22.73;;;;;;;;;;4869547;29;20187;-84
2021/12/27 13:31:02;;;;;;;83.17;26.13;;;-4.00;99.90;;;;;;4873815;29;20190;-83
2021/12/27 13:33:35;;;;;;;68.17;26.37;;;-4.10;99.90;;;;;;4864742;29;20218;-84
2021/12/27 13:36:03;;;;;;;59.73;25.80;;;-4.10;99.90;;;;;;4871720;29;20516;-84
2021/12/27 13:38:31;;;;;;;68.67;24.97;;;-4.20;99.90;;;;;;4871003;29;20597;-84